createdAt,value
2018-04-16T00:01:30.035Z,101019.36
2018-04-16T00:03:59.543Z,101030.55
2018-04-16T00:06:28.000Z,101031.35
2018-04-16T00:08:56.428Z,101025.61
2018-04-16T00:11:25.509Z,101029.59
2018-04-16T00:13:53.955Z,101032.75
2018-04-16T00:16:22.472Z,101038.16
2018-04-16T00:18:50.958Z,101042.88
2018-04-16T00:21:19.347Z,101043.19
2018-04-16T00:23:47.869Z,101044.40
2018-04-16T00:26:18.913Z,101048.25
2018-04-16T00:28:47.296Z,101038.66
2018-04-16T00:31:15.653Z,101037.52
2018-04-16T00:33:50.144Z,101041.18
2018-04-16T00:39:25.670Z,101031.09
2018-04-16T00:41:59.579Z,101035.76
2018-04-16T00:47:37.052Z,101015.49
2018-04-16T00:50:12.714Z,101025.77
2018-04-16T00:52:46.749Z,101020.47
2018-04-16T00:55:22.235Z,101021.55
2018-04-16T00:57:56.248Z,101018.09
2018-04-16T01:00:30.277Z,101020.72
2018-04-16T01:03:04.181Z,101007.59
2018-04-16T01:05:38.219Z,101017.25
2018-04-16T01:08:12.089Z,101024.10
2018-04-16T01:10:46.927Z,101022.30
2018-04-16T01:13:21.166Z,101022.53
2018-04-16T01:15:55.151Z,101015.83
2018-04-16T01:18:29.152Z,101022.58
2018-04-16T01:21:03.387Z,101002.43
2018-04-16T01:23:37.544Z,101001.05
2018-04-16T01:26:12.359Z,100996.61
2018-04-16T01:28:46.228Z,100997.86
2018-04-16T01:31:21.192Z,100991.25
2018-04-16T01:33:55.232Z,101007.03
2018-04-16T01:36:29.174Z,101003.05
2018-04-16T01:39:03.159Z,100999.28
2018-04-16T01:41:37.103Z,100998.52
2018-04-16T01:44:11.156Z,101005.32
2018-04-16T01:49:51.693Z,100999.09
2018-04-16T01:52:25.833Z,101003.23
2018-04-16T01:54:59.842Z,101010.13
2018-04-16T01:57:33.812Z,100994.39
2018-04-16T02:00:07.762Z,101005.85
2018-04-16T02:02:41.937Z,101004.71
2018-04-16T02:05:15.863Z,100990.55
2018-04-16T02:07:49.950Z,100993.82
2018-04-16T02:10:23.803Z,100988.60
2018-04-16T02:16:03.857Z,100991.30
2018-04-16T02:18:37.974Z,100984.37
2018-04-16T02:21:11.919Z,100984.03
2018-04-16T02:23:47.241Z,100985.89
2018-04-16T02:26:21.229Z,100978.23
2018-04-16T02:28:56.600Z,100975.38
2018-04-16T02:31:30.732Z,100988.31
2018-04-16T02:34:04.919Z,100987.32
2018-04-16T02:36:38.821Z,100982.14
2018-04-16T02:39:12.745Z,100981.94
2018-04-16T02:41:46.834Z,100989.59
2018-04-16T02:44:21.057Z,100989.65
2018-04-16T02:46:54.982Z,100997.38
2018-04-16T02:49:28.991Z,100996.48
2018-04-16T02:52:02.901Z,100999.33
2018-04-16T02:54:36.930Z,101010.03
2018-04-16T03:00:20.823Z,101011.66
2018-04-16T03:02:54.948Z,101014.73
2018-04-16T03:05:28.883Z,101015.97
2018-04-16T03:08:02.757Z,101021.92
2018-04-16T03:10:36.881Z,101022.15
2018-04-16T03:13:10.874Z,101017.68
2018-04-16T03:15:44.950Z,100993.02
2018-04-16T03:18:18.860Z,100985.14
2018-04-16T03:20:54.293Z,100987.22
2018-04-16T03:23:28.473Z,100989.02
2018-04-16T03:26:02.566Z,100984.80
2018-04-16T03:28:36.636Z,100981.33
2018-04-16T03:31:10.468Z,100990.30
2018-04-16T03:33:44.374Z,100990.47
2018-04-16T03:36:19.248Z,100990.89
2018-04-16T03:38:53.402Z,100983.92
2018-04-16T03:41:27.673Z,100982.27
2018-04-16T03:47:06.651Z,100983.84
2018-04-16T03:49:40.715Z,100986.27
2018-04-16T03:52:14.708Z,100986.28
2018-04-16T03:54:43.103Z,100985.31
2018-04-16T03:57:11.467Z,100998.42
2018-04-16T03:59:40.643Z,100991.14
2018-04-16T04:02:09.026Z,100985.22
2018-04-16T04:04:37.364Z,100984.59
2018-04-16T04:07:05.722Z,100982.28
2018-04-16T04:09:34.057Z,100987.78
2018-04-16T04:12:02.436Z,100985.55
2018-04-16T04:14:30.839Z,100999.09
2018-04-16T04:16:59.242Z,101011.73
2018-04-16T04:19:27.632Z,101014.16
2018-04-16T04:21:57.571Z,101031.77
2018-04-16T04:24:37.701Z,101031.39
2018-04-16T04:27:17.740Z,101030.96
2018-04-16T04:29:57.795Z,101011.23
2018-04-16T04:32:26.321Z,101005.55
2018-04-16T04:34:54.666Z,101002.76
2018-04-16T04:37:23.127Z,101016.33
2018-04-16T04:39:52.145Z,101011.52
2018-04-16T04:42:20.509Z,101020.00
2018-04-16T04:44:48.988Z,101031.59
2018-04-16T04:47:17.643Z,101023.18
2018-04-16T04:49:46.094Z,101025.14
2018-04-16T04:52:14.438Z,101039.16
2018-04-16T04:54:43.443Z,101044.00
2018-04-16T04:57:11.814Z,101046.80
2018-04-16T04:59:40.160Z,101057.50
2018-04-16T05:02:08.724Z,101059.41
2018-04-16T05:04:37.071Z,101060.13
2018-04-16T05:07:05.424Z,101055.48
2018-04-16T05:09:33.807Z,101048.86
2018-04-16T05:12:02.292Z,101040.68
2018-04-16T05:14:30.682Z,101041.69
2018-04-16T05:16:59.938Z,101040.73
2018-04-16T05:19:28.344Z,101058.22
2018-04-16T05:21:56.771Z,101066.03
2018-04-16T05:24:25.292Z,101073.64
2018-04-16T05:26:53.663Z,101075.64
2018-04-16T05:29:22.213Z,101078.40
2018-04-16T05:31:51.172Z,101073.64
2018-04-16T05:34:19.553Z,101080.77
2018-04-16T05:36:47.916Z,101088.17
2018-04-16T05:39:16.312Z,101097.59
2018-04-16T05:41:44.668Z,101104.64
2018-04-16T05:44:13.047Z,101113.38
2018-04-16T05:46:42.279Z,101104.69
2018-04-16T05:49:10.626Z,101105.13
2018-04-16T05:51:38.989Z,101111.13
2018-04-16T05:54:08.740Z,101117.11
2018-04-16T05:56:37.112Z,101124.73
2018-04-16T05:59:05.474Z,101125.66
2018-04-16T06:01:33.863Z,101128.55
2018-04-16T06:04:02.253Z,101124.30
2018-04-16T06:06:30.686Z,101121.37
2018-04-16T06:08:59.194Z,101121.86
2018-04-16T06:11:27.578Z,101116.86
2018-04-16T06:13:56.096Z,101118.10
2018-04-16T06:16:25.701Z,101127.63
2018-04-16T06:18:54.501Z,101136.09
2018-04-16T06:21:24.239Z,101138.78
2018-04-16T06:23:53.272Z,101136.84
2018-04-16T06:26:21.779Z,101125.81
2018-04-16T06:28:50.390Z,101123.66
2018-04-16T06:31:19.195Z,101134.36
2018-04-16T06:33:47.595Z,101128.59
2018-04-16T06:36:16.896Z,101116.94
2018-04-16T06:38:45.492Z,101116.01
2018-04-16T06:41:13.894Z,101106.69
2018-04-16T06:43:42.266Z,101102.83
2018-04-16T06:46:10.661Z,101096.97
2018-04-16T06:48:39.279Z,101101.09
2018-04-16T06:51:07.619Z,101093.77
2018-04-16T06:53:36.136Z,101091.63
2018-04-16T06:56:04.830Z,101089.77
2018-04-16T06:58:33.213Z,101098.52
2018-04-16T07:01:01.855Z,101095.23
2018-04-16T07:03:30.268Z,101104.56
2018-04-16T07:05:58.747Z,101116.13
2018-04-16T07:08:27.343Z,101115.67
2018-04-16T07:10:55.745Z,101109.69
2018-04-16T07:13:24.259Z,101114.53
2018-04-16T07:15:52.724Z,101118.57
2018-04-16T07:18:21.194Z,101108.58
2018-04-16T07:20:49.590Z,101112.34
2018-04-16T07:23:18.118Z,101119.63
2018-04-16T07:25:46.650Z,101119.13
2018-04-16T07:28:15.013Z,101119.18
2018-04-16T07:30:44.243Z,101120.03
2018-04-16T07:33:14.298Z,101118.23
2018-04-16T07:35:42.713Z,101120.27
2018-04-16T07:38:11.172Z,101119.03
2018-04-16T07:40:39.554Z,101131.66
2018-04-16T07:43:08.052Z,101130.62
2018-04-16T07:45:36.559Z,101131.95
2018-04-16T07:48:04.942Z,101132.25
2018-04-16T07:50:33.315Z,101139.98
2018-04-16T07:53:02.599Z,101143.62
2018-04-16T07:55:30.999Z,101136.72
2018-04-16T07:57:59.449Z,101147.58
2018-04-16T08:00:27.965Z,101155.05
2018-04-16T08:02:56.353Z,101154.58
2018-04-16T08:05:24.768Z,101151.67
2018-04-16T08:07:54.220Z,101156.94
2018-04-16T08:10:22.599Z,101153.19
2018-04-16T08:12:51.031Z,101155.66
2018-04-16T08:15:19.605Z,101158.52
2018-04-16T08:17:47.980Z,101162.05
2018-04-16T08:20:16.457Z,101153.02
2018-04-16T08:22:45.888Z,101149.28
2018-04-16T08:25:14.387Z,101149.88
2018-04-16T08:27:42.928Z,101152.51
2018-04-16T08:30:11.644Z,101144.72
2018-04-16T08:32:40.098Z,101150.04
2018-04-16T08:35:08.972Z,101154.95
2018-04-16T08:37:37.359Z,101154.88
2018-04-16T08:40:05.851Z,101158.58
2018-04-16T08:42:34.235Z,101155.84
2018-04-16T08:45:02.612Z,101156.73
2018-04-16T08:47:30.993Z,101161.60
2018-04-16T08:49:59.383Z,101160.91
2018-04-16T08:52:28.262Z,101170.32
2018-04-16T08:54:56.630Z,101170.85
2018-04-16T08:57:25.008Z,101169.31
2018-04-16T08:59:54.212Z,101177.86
2018-04-16T09:02:23.719Z,101167.77
2018-04-16T09:04:52.403Z,101172.63
2018-04-16T09:07:22.225Z,101163.25
2018-04-16T09:09:50.901Z,101168.11
2018-04-16T09:12:19.408Z,101168.08
2018-04-16T09:14:48.315Z,101174.36
2018-04-16T09:17:16.748Z,101178.06
2018-04-16T09:19:45.139Z,101179.01
2018-04-16T09:22:14.385Z,101183.63
2018-04-16T09:24:43.210Z,101184.51
2018-04-16T09:27:11.726Z,101182.95
2018-04-16T09:29:40.373Z,101193.42
2018-04-16T09:32:08.800Z,101189.36
2018-04-16T09:34:37.706Z,101190.58
2018-04-16T09:37:06.765Z,101188.25
2018-04-16T09:39:35.172Z,101187.23
2018-04-16T09:42:03.743Z,101188.75
2018-04-16T09:44:32.293Z,101186.10
2018-04-16T09:47:00.679Z,101188.15
2018-04-16T09:49:29.066Z,101194.76
2018-04-16T09:51:57.545Z,101190.44
2018-04-16T09:54:25.920Z,101189.77
2018-04-16T09:56:54.580Z,101189.89
2018-04-16T09:59:23.036Z,101187.67
2018-04-16T10:01:51.925Z,101186.65
2018-04-16T10:04:20.442Z,101185.06
2018-04-16T10:06:49.686Z,101191.67
2018-04-16T10:09:18.328Z,101190.91
2018-04-16T10:11:46.782Z,101187.52
2018-04-16T10:14:15.225Z,101185.23
2018-04-16T10:16:43.923Z,101187.77
2018-04-16T10:19:13.119Z,101179.25
2018-04-16T10:21:42.957Z,101182.20
2018-04-16T10:24:11.803Z,101182.97
2018-04-16T10:26:40.205Z,101165.80
2018-04-16T10:29:11.292Z,101166.05
2018-04-16T10:31:40.082Z,101157.56
2018-04-16T10:34:10.204Z,101160.47
2018-04-16T10:36:39.230Z,101156.52
2018-04-16T10:39:07.788Z,101157.91
2018-04-16T10:41:36.264Z,101165.03
2018-04-16T10:44:05.665Z,101163.09
2018-04-16T10:46:34.016Z,101152.25
2018-04-16T10:49:02.492Z,101160.23
2018-04-16T10:51:31.047Z,101161.28
2018-04-16T10:53:59.403Z,101161.27
2018-04-16T10:56:27.841Z,101157.25
2018-04-16T10:58:56.918Z,101147.47
2018-04-16T11:01:25.337Z,101157.00
2018-04-16T11:03:54.438Z,101155.94
2018-04-16T11:06:22.985Z,101156.76
2018-04-16T11:08:51.433Z,101162.06
2018-04-16T11:11:21.900Z,101165.58
2018-04-16T11:13:50.475Z,101162.66
2018-04-16T11:16:19.201Z,101163.92
2018-04-16T11:18:48.149Z,101170.58
2018-04-16T11:21:16.749Z,101167.64
2018-04-16T11:23:45.349Z,101171.63
2018-04-16T11:26:13.956Z,101178.63
2018-04-16T11:28:43.206Z,101174.06
2018-04-16T11:31:12.142Z,101172.86
2018-04-16T11:33:41.189Z,101173.72
2018-04-16T11:36:09.758Z,101171.87
2018-04-16T11:38:38.452Z,101166.84
2018-04-16T11:41:06.856Z,101171.59
2018-04-16T11:43:35.740Z,101171.17
2018-04-16T11:46:04.122Z,101166.78
2018-04-16T11:48:32.789Z,101163.91
2018-04-16T11:51:01.851Z,101163.84
2018-04-16T11:53:30.234Z,101154.44
2018-04-16T11:55:58.763Z,101164.80
2018-04-16T11:58:27.892Z,101179.70
2018-04-16T12:00:56.320Z,101178.95
2018-04-16T12:03:24.802Z,101180.38
2018-04-16T12:05:54.717Z,101180.46
2018-04-16T12:08:23.090Z,101188.02
2018-04-16T12:10:51.944Z,101191.73
2018-04-16T12:13:20.778Z,101193.95
2018-04-16T12:15:49.151Z,101191.28
2018-04-16T12:18:17.524Z,101181.53
2018-04-16T12:20:46.601Z,101180.08
2018-04-16T12:23:14.959Z,101194.89
2018-04-16T12:25:43.342Z,101198.45
2018-04-16T12:28:12.147Z,101204.17
2018-04-16T12:30:40.499Z,101208.59
2018-04-16T12:33:08.878Z,101208.33
2018-04-16T12:35:37.283Z,101209.94
2018-04-16T12:38:05.692Z,101206.71
2018-04-16T12:40:34.223Z,101200.62
2018-04-16T12:43:03.442Z,101200.88
2018-04-16T12:45:32.088Z,101201.06
2018-04-16T12:48:00.763Z,101208.77
2018-04-16T12:50:29.185Z,101204.09
2018-04-16T12:52:57.636Z,101203.81
2018-04-16T12:55:26.155Z,101196.58
2018-04-16T12:57:54.569Z,101198.95
2018-04-16T13:00:22.920Z,101194.73
2018-04-16T13:02:51.261Z,101198.92
2018-04-16T13:05:19.764Z,101194.56
2018-04-16T13:07:48.141Z,101192.58
2018-04-16T13:10:16.575Z,101190.49
2018-04-16T13:12:45.004Z,101194.19
2018-04-16T13:15:13.475Z,101196.67
2018-04-16T13:17:41.862Z,101194.22
2018-04-16T13:20:10.813Z,101198.00
2018-04-16T13:22:40.020Z,101193.22
2018-04-16T13:25:08.397Z,101189.43
2018-04-16T13:27:36.864Z,101196.78
2018-04-16T13:30:05.373Z,101195.54
2018-04-16T13:32:33.952Z,101191.00
2018-04-16T13:35:03.255Z,101184.58
2018-04-16T13:37:33.134Z,101181.69
2018-04-16T13:40:02.539Z,101188.42
2018-04-16T13:42:32.723Z,101181.91
2018-04-16T13:45:01.287Z,101178.66
2018-04-16T13:47:30.215Z,101174.24
2018-04-16T13:49:58.643Z,101169.17
2018-04-16T13:52:27.034Z,101176.65
2018-04-16T13:54:55.431Z,101172.53
2018-04-16T13:57:24.469Z,101178.92
2018-04-16T13:59:52.815Z,101172.53
2018-04-16T14:02:21.666Z,101170.84
2018-04-16T14:04:51.074Z,101166.38
2018-04-16T14:07:19.647Z,101167.31
2018-04-16T14:09:48.045Z,101163.16
2018-04-16T14:12:16.641Z,101176.10
2018-04-16T14:14:45.045Z,101170.13
2018-04-16T14:17:13.917Z,101172.92
2018-04-16T14:19:43.136Z,101186.81
2018-04-16T14:22:11.616Z,101185.84
2018-04-16T14:24:40.088Z,101184.27
2018-04-16T14:27:09.504Z,101189.13
2018-04-16T14:29:38.106Z,101188.20
2018-04-16T14:32:06.725Z,101198.78
2018-04-16T14:34:37.141Z,101196.67
2018-04-16T14:37:06.241Z,101199.04
2018-04-16T14:39:34.930Z,101215.31
2018-04-16T14:42:04.038Z,101243.55
2018-04-16T14:44:32.505Z,101259.88
2018-04-16T14:47:00.961Z,101250.11
2018-04-16T14:49:30.298Z,101253.36
2018-04-16T14:51:59.390Z,101266.04
2018-04-16T14:54:28.373Z,101273.22
2018-04-16T14:56:56.783Z,101278.09
2018-04-16T14:59:25.185Z,101275.28
2018-04-16T15:01:53.573Z,101286.32
2018-04-16T15:04:22.192Z,101290.73
2018-04-16T15:06:50.677Z,101301.66
2018-04-16T15:09:19.086Z,101307.87
2018-04-16T15:11:48.289Z,101324.45
2018-04-16T15:14:16.964Z,101329.87
2018-04-16T15:16:45.532Z,101337.81
2018-04-16T15:19:15.365Z,101334.25
2018-04-16T15:21:44.173Z,101322.36
2018-04-16T15:24:12.709Z,101332.86
2018-04-16T15:26:41.321Z,101339.78
2018-04-16T15:29:09.961Z,101348.45
2018-04-16T15:31:39.389Z,101345.27
2018-04-16T15:34:07.972Z,101343.48
2018-04-16T15:36:36.595Z,101354.45
2018-04-16T15:39:05.953Z,101351.03
2018-04-16T15:41:35.151Z,101342.56
2018-04-16T15:44:03.785Z,101333.53
2018-04-16T15:46:32.642Z,101339.89
2018-04-16T15:49:01.229Z,101346.59
2018-04-16T15:51:29.728Z,101342.20
2018-04-16T15:53:58.377Z,101330.14
2018-04-16T15:56:26.989Z,101338.86
2018-04-16T15:58:55.745Z,101338.39
2018-04-16T16:01:24.542Z,101344.41
2018-04-16T16:03:53.965Z,101347.97
2018-04-16T16:06:23.541Z,101346.84
2018-04-16T16:08:52.119Z,101348.56
2018-04-16T16:11:20.817Z,101357.52
2018-04-16T16:13:49.318Z,101358.06
2018-04-16T16:16:17.695Z,101350.91
2018-04-16T16:18:46.141Z,101357.68
2018-04-16T16:21:14.553Z,101357.05
2018-04-16T16:23:43.051Z,101371.06
2018-04-16T16:26:11.508Z,101367.59
2018-04-16T16:28:39.927Z,101373.34
2018-04-16T16:31:09.319Z,101373.39
2018-04-16T16:33:38.691Z,101376.95
2018-04-16T16:36:07.211Z,101374.98
2018-04-16T16:38:35.968Z,101372.50
2018-04-16T16:41:04.534Z,101375.91
2018-04-16T16:43:33.451Z,101380.81
2018-04-16T16:46:03.090Z,101380.06
2018-04-16T16:48:33.871Z,101390.88
2018-04-16T16:51:02.500Z,101385.52
2018-04-16T16:53:31.251Z,101384.89
2018-04-16T16:55:59.909Z,101393.27
2018-04-16T16:58:28.310Z,101395.23
2018-04-16T17:00:56.773Z,101398.55
2018-04-16T17:03:25.250Z,101400.27
2018-04-16T17:05:53.723Z,101403.63
2018-04-16T17:08:22.121Z,101411.91
2018-04-16T17:10:50.622Z,101418.57
2018-04-16T17:13:19.096Z,101425.52
2018-04-16T17:15:47.725Z,101431.66
2018-04-16T17:18:16.447Z,101422.66
2018-04-16T17:20:45.570Z,101424.01
2018-04-16T17:23:14.428Z,101427.02
2018-04-16T17:25:42.991Z,101429.89
2018-04-16T17:28:11.638Z,101426.83
2018-04-16T17:30:40.243Z,101430.17
2018-04-16T17:33:08.911Z,101432.35
2018-04-16T17:35:38.028Z,101441.52
2018-04-16T17:38:06.594Z,101446.54
2018-04-16T17:40:35.591Z,101449.09
2018-04-16T17:43:04.483Z,101452.86
2018-04-16T17:45:33.538Z,101462.27
2018-04-16T17:48:02.479Z,101469.55
2018-04-16T17:50:31.038Z,101471.30
2018-04-16T17:52:59.543Z,101474.02
2018-04-16T17:55:29.584Z,101476.02
2018-04-16T17:57:58.733Z,101480.41
2018-04-16T18:00:27.811Z,101489.34
2018-04-16T18:02:57.820Z,101492.83
2018-04-16T18:05:27.059Z,101491.80
2018-04-16T18:07:55.817Z,101498.88
2018-04-16T18:10:25.083Z,101504.54
2018-04-16T18:12:53.921Z,101507.69
2018-04-16T18:15:22.701Z,101508.19
2018-04-16T18:17:51.477Z,101509.94
2018-04-16T18:20:20.263Z,101514.03
2018-04-16T18:22:48.641Z,101522.44
2018-04-16T18:25:17.385Z,101525.72
2018-04-16T18:27:45.906Z,101533.89
2018-04-16T18:30:14.438Z,101532.23
2018-04-16T18:32:43.021Z,101545.33
2018-04-16T18:35:11.531Z,101549.35
2018-04-16T18:37:40.013Z,101553.50
2018-04-16T18:40:09.300Z,101558.43
2018-04-16T18:42:37.772Z,101558.23
2018-04-16T18:45:06.256Z,101552.09
2018-04-16T18:47:35.246Z,101561.12
2018-04-16T18:50:03.818Z,101557.78
2018-04-16T18:52:34.035Z,101563.38
2018-04-16T18:55:02.892Z,101557.09
2018-04-16T18:57:32.572Z,101558.70
2018-04-16T19:00:01.141Z,101560.64
2018-04-16T19:02:30.015Z,101562.74
2018-04-16T19:04:58.597Z,101566.75
2018-04-16T19:07:27.867Z,101572.62
2018-04-16T19:09:56.582Z,101578.52
2018-04-16T19:12:25.612Z,101574.28
2018-04-16T19:14:55.524Z,101573.53
2018-04-16T19:17:24.046Z,101573.23
2018-04-16T19:19:52.555Z,101579.63
2018-04-16T19:22:21.056Z,101584.75
2018-04-16T19:24:50.226Z,101586.70
2018-04-16T19:27:24.138Z,101594.02
2018-04-16T19:29:53.664Z,101594.70
2018-04-16T19:32:23.657Z,101600.97
2018-04-16T19:34:58.178Z,101597.27
2018-04-16T19:37:27.123Z,101604.41
2018-04-16T19:39:56.276Z,101605.19
2018-04-16T19:42:30.700Z,101608.45
2018-04-16T19:44:59.691Z,101616.50
2018-04-16T19:47:28.273Z,101615.81
2018-04-16T19:50:03.435Z,101612.80
2018-04-16T19:52:33.249Z,101609.52
2018-04-16T19:55:01.912Z,101617.89
2018-04-16T19:57:36.867Z,101620.88
2018-04-16T20:00:05.661Z,101632.63
2018-04-16T20:02:40.121Z,101624.18
2018-04-16T20:05:08.795Z,101619.08
2018-04-16T20:07:37.623Z,101621.92
2018-04-16T20:10:07.330Z,101631.85
2018-04-16T20:12:35.907Z,101634.83
2018-04-16T20:15:04.367Z,101638.20
2018-04-16T20:17:32.876Z,101635.59
2018-04-16T20:20:01.485Z,101638.52
2018-04-16T20:22:29.948Z,101638.62
2018-04-16T20:24:58.600Z,101639.19
2018-04-16T20:27:27.139Z,101643.12
2018-04-16T20:29:56.710Z,101647.16
2018-04-16T20:32:26.384Z,101642.53
2018-04-16T20:34:55.282Z,101644.64
2018-04-16T20:37:24.066Z,101649.14
2018-04-16T20:39:52.680Z,101652.47
2018-04-16T20:42:21.123Z,101655.69
2018-04-16T20:44:49.464Z,101664.63
2018-04-16T20:47:18.907Z,101665.10
2018-04-16T20:49:47.279Z,101670.08
2018-04-16T20:52:16.484Z,101667.37
2018-04-16T20:54:44.992Z,101668.50
2018-04-16T20:57:13.346Z,101674.82
2018-04-16T20:59:41.764Z,101672.47
2018-04-16T21:02:10.845Z,101671.03
2018-04-16T21:04:39.295Z,101670.17
2018-04-16T21:07:07.839Z,101670.33
2018-04-16T21:09:36.463Z,101669.37
2018-04-16T21:12:04.851Z,101687.41
2018-04-16T21:14:33.344Z,101689.28
2018-04-16T21:17:02.673Z,101700.02
2018-04-16T21:19:31.183Z,101694.95
2018-04-16T21:21:59.598Z,101694.63
2018-04-16T21:24:28.257Z,101694.62
2018-04-16T21:26:57.548Z,101698.94
2018-04-16T21:29:26.060Z,101697.97
2018-04-16T21:31:55.659Z,101701.94
2018-04-16T21:34:24.117Z,101715.73
2018-04-16T21:36:52.507Z,101713.36
2018-04-16T21:39:20.948Z,101714.36
2018-04-16T21:41:49.327Z,101731.13
2018-04-16T21:44:17.686Z,101725.73
2018-04-16T21:46:47.211Z,101729.62
2018-04-16T21:49:15.756Z,101736.55
2018-04-16T21:51:44.171Z,101735.04
2018-04-16T21:54:13.246Z,101733.17
2018-04-16T21:56:42.008Z,101738.73
2018-04-16T21:59:10.388Z,101749.39
2018-04-16T22:01:38.974Z,101759.20
2018-04-16T22:04:07.350Z,101761.78
2018-04-16T22:06:35.877Z,101765.03
2018-04-16T22:09:04.312Z,101767.17
2018-04-16T22:11:35.131Z,101762.93
2018-04-16T22:14:03.851Z,101763.05
2018-04-16T22:16:33.412Z,101763.72
2018-04-16T22:19:01.791Z,101758.13
2018-04-16T22:21:30.206Z,101762.94
2018-04-16T22:23:59.287Z,101774.58
2018-04-16T22:26:28.330Z,101773.95
2018-04-16T22:28:56.817Z,101777.52
2018-04-16T22:31:25.999Z,101778.27
2018-04-16T22:33:54.748Z,101775.81
2018-04-16T22:36:23.232Z,101776.72
2018-04-16T22:38:52.046Z,101774.66
2018-04-16T22:41:20.451Z,101779.67
2018-04-16T22:43:48.793Z,101775.02
2018-04-16T22:46:17.179Z,101780.37
2018-04-16T22:48:45.583Z,101789.37
2018-04-16T22:51:13.932Z,101794.00
2018-04-16T22:53:42.722Z,101802.62
2018-04-16T22:56:11.099Z,101808.05
2018-04-16T22:58:39.462Z,101802.31
2018-04-16T23:01:08.168Z,101807.09
2018-04-16T23:03:36.575Z,101802.06
2018-04-16T23:06:04.992Z,101803.63
2018-04-16T23:08:33.753Z,101802.24
2018-04-16T23:11:02.200Z,101798.19
2018-04-16T23:13:30.920Z,101795.14
2018-04-16T23:15:59.965Z,101808.53
2018-04-16T23:18:28.586Z,101803.88
2018-04-16T23:20:57.116Z,101808.70
2018-04-16T23:23:26.323Z,101806.51
2018-04-16T23:25:55.170Z,101804.44
2018-04-16T23:28:23.625Z,101811.25
2018-04-16T23:30:53.812Z,101815.05
2018-04-16T23:33:22.435Z,101821.98
2018-04-16T23:35:50.789Z,101825.59
2018-04-16T23:38:19.377Z,101830.12
2018-04-16T23:40:47.745Z,101823.27
2018-04-16T23:43:17.059Z,101831.44
2018-04-16T23:45:45.431Z,101838.33
2018-04-16T23:48:14.116Z,101843.44
2018-04-16T23:50:42.502Z,101848.83
2018-04-16T23:53:10.937Z,101852.61
2018-04-16T23:55:39.279Z,101848.30
2018-04-16T23:58:08.646Z,101847.13
